createdAt,value
2018-08-12T00:00:44.067Z,1014
2018-08-12T00:01:44.775Z,1014
2018-08-12T00:02:45.492Z,1014
2018-08-12T00:03:46.202Z,1014
2018-08-12T00:04:46.929Z,1014
2018-08-12T00:05:47.640Z,1013
2018-08-12T00:06:48.365Z,1013
2018-08-12T00:07:49.075Z,1013
2018-08-12T00:08:49.785Z,1013
2018-08-12T00:09:50.508Z,1013
2018-08-12T00:10:51.232Z,1013
2018-08-12T00:11:51.943Z,1013
2018-08-12T00:12:52.666Z,1013
2018-08-12T00:13:53.368Z,1013
2018-08-12T00:14:54.083Z,1013
2018-08-12T00:15:54.794Z,1013
2018-08-12T00:16:55.503Z,1013
2018-08-12T00:17:56.229Z,1013
2018-08-12T00:18:56.943Z,1013
2018-08-12T00:19:57.656Z,1013
2018-08-12T00:20:58.369Z,1013
2018-08-12T00:21:59.082Z,1013
2018-08-12T00:22:59.808Z,1013
2018-08-12T00:24:00.521Z,1013
2018-08-12T00:25:01.230Z,1013
2018-08-12T00:26:01.942Z,1013
2018-08-12T00:27:02.650Z,1013
2018-08-12T00:28:03.376Z,1013
2018-08-12T00:29:04.097Z,1013
2018-08-12T00:30:04.823Z,1013
2018-08-12T00:31:05.536Z,1013
2018-08-12T00:32:06.250Z,1013
2018-08-12T00:33:06.975Z,1013
2018-08-12T00:34:07.700Z,1013
2018-08-12T00:35:08.412Z,1013
2018-08-12T00:36:09.124Z,1013
2018-08-12T00:37:09.835Z,1013
2018-08-12T00:38:10.559Z,1013
2018-08-12T00:39:11.273Z,1013
2018-08-12T00:40:11.982Z,1013
2018-08-12T00:41:12.694Z,1013
2018-08-12T00:42:13.410Z,1013
2018-08-12T00:43:14.119Z,1013
2018-08-12T00:44:14.829Z,1013
2018-08-12T00:45:15.556Z,1013
2018-08-12T00:46:16.280Z,1013
2018-08-12T00:47:16.992Z,1013
2018-08-12T00:48:17.702Z,1013
2018-08-12T00:49:18.428Z,1013
2018-08-12T00:50:19.155Z,1013
2018-08-12T00:51:19.877Z,1013
2018-08-12T00:52:20.588Z,1013
2018-08-12T00:53:21.301Z,1013
2018-08-12T00:54:22.011Z,1013
2018-08-12T00:55:22.723Z,1013
2018-08-12T00:56:23.435Z,1013
2018-08-12T00:57:24.147Z,1013
2018-08-12T00:58:24.858Z,1013
2018-08-12T00:59:25.582Z,1013
2018-08-12T01:00:26.306Z,1013
2018-08-12T01:01:27.015Z,1013
2018-08-12T01:02:27.726Z,1013
2018-08-12T01:03:28.438Z,1013
2018-08-12T01:04:29.151Z,1013
2018-08-12T01:05:29.876Z,1013
2018-08-12T01:06:30.589Z,1013
2018-08-12T01:07:31.302Z,1013
2018-08-12T01:08:32.016Z,1013
2018-08-12T01:09:32.728Z,1013
2018-08-12T01:10:33.440Z,1013
2018-08-12T01:11:34.164Z,1013
2018-08-12T01:12:34.875Z,1013
2018-08-12T01:13:35.586Z,1013
2018-08-12T01:14:36.308Z,1013
2018-08-12T01:15:37.025Z,1013
2018-08-12T01:16:37.753Z,1013
2018-08-12T01:17:38.462Z,1013
2018-08-12T01:18:39.175Z,1013
2018-08-12T01:19:39.889Z,1013
2018-08-12T01:20:40.602Z,1013
2018-08-12T01:21:41.314Z,1013
2018-08-12T01:22:42.026Z,1013
2018-08-12T01:23:42.738Z,1013
2018-08-12T01:24:43.449Z,1013
2018-08-12T01:25:44.174Z,1013
2018-08-12T01:26:44.884Z,1013
2018-08-12T01:27:45.607Z,1013
2018-08-12T01:28:46.319Z,1013
2018-08-12T01:29:47.042Z,1013
2018-08-12T01:30:47.754Z,1013
2018-08-12T01:31:48.468Z,1013
2018-08-12T01:32:49.189Z,1013
2018-08-12T01:33:49.915Z,1013
2018-08-12T01:34:50.624Z,1013
2018-08-12T01:35:51.358Z,1013
2018-08-12T01:36:52.076Z,1013
2018-08-12T01:37:52.791Z,1013
2018-08-12T01:38:53.511Z,1013
2018-08-12T01:39:54.221Z,1013
2018-08-12T01:40:54.931Z,1013
2018-08-12T01:41:55.643Z,1013
2018-08-12T01:42:56.355Z,1013
2018-08-12T01:43:57.065Z,1013
2018-08-12T01:44:57.777Z,1013
2018-08-12T01:45:58.487Z,1013
2018-08-12T01:46:59.199Z,1013
2018-08-12T01:47:59.910Z,1013
2018-08-12T01:49:00.622Z,1013
2018-08-12T01:50:01.333Z,1013
2018-08-12T01:51:02.045Z,1013
2018-08-12T01:52:02.757Z,1013
2018-08-12T01:53:03.469Z,1013
2018-08-12T01:54:04.180Z,1013
2018-08-12T01:55:04.893Z,1013
2018-08-12T01:56:05.605Z,1013
2018-08-12T01:57:06.317Z,1013
2018-08-12T01:58:07.042Z,1013
2018-08-12T01:59:07.752Z,1013
2018-08-12T02:00:08.476Z,1013
2018-08-12T02:01:09.187Z,1013
2018-08-12T02:02:09.900Z,1013
2018-08-12T02:03:10.610Z,1013
2018-08-12T02:04:11.321Z,1013
2018-08-12T02:05:12.035Z,1013
2018-08-12T02:06:12.745Z,1013
2018-08-12T02:07:13.457Z,1013
2018-08-12T02:08:14.184Z,1013
2018-08-12T02:09:14.900Z,1013
2018-08-12T02:10:15.624Z,1013
2018-08-12T02:11:16.340Z,1013
2018-08-12T02:12:17.063Z,1013
2018-08-12T02:13:17.775Z,1013
2018-08-12T02:14:18.487Z,1012
2018-08-12T02:15:19.200Z,1013
2018-08-12T02:16:19.909Z,1012
2018-08-12T02:17:20.619Z,1012
2018-08-12T02:18:21.331Z,1012
2018-08-12T02:19:22.043Z,1012
2018-08-12T02:20:22.754Z,1012
2018-08-12T02:21:23.466Z,1012
2018-08-12T02:22:24.178Z,1012
2018-08-12T02:23:24.890Z,1012
2018-08-12T02:24:25.607Z,1012
2018-08-12T02:25:26.329Z,1012
2018-08-12T02:26:27.042Z,1012
2018-08-12T02:27:27.753Z,1012
2018-08-12T02:28:28.476Z,1012
2018-08-12T02:29:29.189Z,1012
2018-08-12T02:30:29.900Z,1012
2018-08-12T02:31:30.618Z,1012
2018-08-12T02:32:31.339Z,1012
2018-08-12T02:33:32.051Z,1012
2018-08-12T02:34:32.777Z,1012
2018-08-12T02:35:33.502Z,1012
2018-08-12T02:36:34.216Z,1012
2018-08-12T02:37:34.925Z,1012
2018-08-12T02:38:35.638Z,1012
2018-08-12T02:39:36.350Z,1012
2018-08-12T02:40:37.077Z,1012
2018-08-12T02:41:37.804Z,1012
2018-08-12T02:42:38.530Z,1012
2018-08-12T02:43:39.242Z,1012
2018-08-12T02:44:39.956Z,1012
2018-08-12T02:45:40.680Z,1012
2018-08-12T02:46:41.393Z,1012
2018-08-12T02:47:42.106Z,1012
2018-08-12T02:48:42.817Z,1012
2018-08-12T02:49:43.539Z,1012
2018-08-12T02:50:44.256Z,1012
2018-08-12T02:51:44.981Z,1012
2018-08-12T02:52:45.707Z,1012
2018-08-12T02:53:46.420Z,1012
2018-08-12T02:54:47.134Z,1012
2018-08-12T02:55:47.845Z,1012
2018-08-12T02:56:48.569Z,1012
2018-08-12T02:57:49.281Z,1012
2018-08-12T02:58:49.993Z,1012
2018-08-12T02:59:50.705Z,1012
2018-08-12T03:00:51.421Z,1012
2018-08-12T03:01:52.131Z,1012
2018-08-12T03:02:52.857Z,1012
2018-08-12T03:03:53.585Z,1012
2018-08-12T03:04:54.295Z,1012
2018-08-12T03:05:55.007Z,1012
2018-08-12T03:06:55.718Z,1012
2018-08-12T03:07:56.429Z,1012
2018-08-12T03:08:57.141Z,1012
2018-08-12T03:09:57.865Z,1012
2018-08-12T03:10:58.610Z,1012
2018-08-12T03:11:59.305Z,1012
2018-08-12T03:13:00.018Z,1012
2018-08-12T03:14:00.732Z,1012
2018-08-12T03:15:01.457Z,1012
2018-08-12T03:16:02.170Z,1012
2018-08-12T03:17:02.895Z,1012
2018-08-12T03:18:03.605Z,1012
2018-08-12T03:19:04.319Z,1012
2018-08-12T03:20:05.031Z,1012
2018-08-12T03:21:05.742Z,1012
2018-08-12T03:22:06.452Z,1012
2018-08-12T03:23:07.174Z,1012
2018-08-12T03:24:07.890Z,1012
2018-08-12T03:25:08.602Z,1012
2018-08-12T03:26:09.314Z,1012
2018-08-12T03:27:10.041Z,1012
2018-08-12T03:28:10.751Z,1012
2018-08-12T03:29:11.464Z,1012
2018-08-12T03:30:12.284Z,1012
2018-08-12T03:31:12.887Z,1012
2018-08-12T03:32:13.599Z,1012
2018-08-12T03:33:14.311Z,1012
2018-08-12T03:34:15.023Z,1012
2018-08-12T03:35:15.734Z,1012
2018-08-12T03:36:16.445Z,1012
2018-08-12T03:37:17.172Z,1012
2018-08-12T03:38:17.885Z,1012
2018-08-12T03:39:18.598Z,1012
2018-08-12T03:40:19.324Z,1012
2018-08-12T03:41:20.046Z,1012
2018-08-12T03:42:20.763Z,1012
2018-08-12T03:43:21.491Z,1012
2018-08-12T03:44:22.202Z,1012
2018-08-12T03:45:22.917Z,1012
2018-08-12T03:46:23.641Z,1012
2018-08-12T03:47:24.356Z,1012
2018-08-12T03:48:25.083Z,1012
2018-08-12T03:49:25.797Z,1012
2018-08-12T03:50:26.528Z,1012
2018-08-12T03:51:27.236Z,1012
2018-08-12T03:52:27.949Z,1012
2018-08-12T03:53:28.662Z,1012
2018-08-12T03:54:29.375Z,1012
2018-08-12T03:55:30.088Z,1012
2018-08-12T03:56:30.801Z,1012
2018-08-12T03:57:31.515Z,1011
2018-08-12T03:58:32.241Z,1011
2018-08-12T03:59:32.954Z,1011
2018-08-12T04:00:33.667Z,1011
2018-08-12T04:01:34.379Z,1011
2018-08-12T04:02:35.109Z,1011
2018-08-12T04:03:35.835Z,1011
2018-08-12T04:04:36.548Z,1011
2018-08-12T04:05:37.263Z,1011
2018-08-12T04:06:37.977Z,1011
2018-08-12T04:07:38.690Z,1011
2018-08-12T04:08:39.418Z,1011
2018-08-12T04:09:40.149Z,1011
2018-08-12T04:10:40.865Z,1011
2018-08-12T04:11:41.577Z,1011
2018-08-12T04:12:42.291Z,1011
2018-08-12T04:13:43.006Z,1011
2018-08-12T04:14:43.719Z,1011
2018-08-12T04:15:44.434Z,1011
2018-08-12T04:16:45.165Z,1011
2018-08-12T04:17:45.893Z,1011
2018-08-12T04:18:46.606Z,1011
2018-08-12T04:19:47.321Z,1011
2018-08-12T04:20:48.049Z,1011
2018-08-12T04:21:48.769Z,1011
2018-08-12T04:22:49.484Z,1011
2018-08-12T04:23:50.200Z,1011
2018-08-12T04:24:50.915Z,1011
2018-08-12T04:25:51.633Z,1011
2018-08-12T04:26:52.347Z,1011
2018-08-12T04:27:53.074Z,1011
2018-08-12T04:28:53.789Z,1011
2018-08-12T04:29:54.508Z,1011
2018-08-12T04:30:55.236Z,1011
2018-08-12T04:31:55.954Z,1011
2018-08-12T04:32:56.683Z,1011
2018-08-12T04:33:57.398Z,1011
2018-08-12T04:34:58.112Z,1011
2018-08-12T04:35:58.828Z,1011
2018-08-12T04:36:59.545Z,1011
2018-08-12T04:38:00.262Z,1011
2018-08-12T04:39:00.978Z,1011
2018-08-12T04:40:01.711Z,1011
2018-08-12T04:41:02.423Z,1011
2018-08-12T04:42:03.139Z,1011
2018-08-12T04:43:03.855Z,1011
2018-08-12T04:44:04.586Z,1011
2018-08-12T04:45:05.303Z,1011
2018-08-12T04:46:06.028Z,1011
2018-08-12T04:47:06.736Z,1011
2018-08-12T04:48:07.452Z,1011
2018-08-12T04:49:08.172Z,1011
2018-08-12T04:50:08.885Z,1011
2018-08-12T04:51:09.606Z,1011
2018-08-12T04:52:10.334Z,1011
2018-08-12T04:53:11.065Z,1011
2018-08-12T04:54:11.781Z,1011
2018-08-12T04:55:12.499Z,1011
2018-08-12T04:56:13.218Z,1011
2018-08-12T04:57:13.937Z,1011
2018-08-12T04:58:14.667Z,1011
2018-08-12T04:59:15.423Z,1011
2018-08-12T05:00:16.115Z,1011
2018-08-12T05:01:16.846Z,1011
2018-08-12T05:02:17.564Z,1011
2018-08-12T05:03:18.283Z,1011
2018-08-12T05:04:19.012Z,1011
2018-08-12T05:05:19.730Z,1011
2018-08-12T05:06:20.446Z,1011
2018-08-12T05:07:21.163Z,1011
2018-08-12T05:08:21.894Z,1011
2018-08-12T05:09:22.610Z,1011
2018-08-12T05:10:23.329Z,1011
2018-08-12T05:11:24.043Z,1011
2018-08-12T05:12:24.760Z,1011
2018-08-12T05:13:25.478Z,1011
2018-08-12T05:14:26.198Z,1011
2018-08-12T05:15:26.929Z,1011
2018-08-12T05:16:27.645Z,1011
2018-08-12T05:17:28.363Z,1011
2018-08-12T05:18:29.081Z,1011
2018-08-12T05:19:29.799Z,1011
2018-08-12T05:20:30.517Z,1011
2018-08-12T05:21:31.234Z,1011
2018-08-12T05:22:31.950Z,1011
2018-08-12T05:23:32.672Z,1011
2018-08-12T05:24:33.399Z,1011
2018-08-12T05:25:34.116Z,1011
2018-08-12T05:26:34.833Z,1011
2018-08-12T05:27:35.552Z,1011
2018-08-12T05:28:36.269Z,1011
2018-08-12T05:29:36.988Z,1011
2018-08-12T05:30:37.706Z,1011
2018-08-12T05:31:38.425Z,1011
2018-08-12T05:32:39.144Z,1011
2018-08-12T05:33:39.865Z,1011
2018-08-12T05:34:40.594Z,1011
2018-08-12T05:35:41.327Z,1011
2018-08-12T05:36:42.043Z,1011
2018-08-12T05:37:42.758Z,1011
2018-08-12T05:38:43.476Z,1011
2018-08-12T05:39:44.209Z,1011
2018-08-12T05:40:44.929Z,1011
2018-08-12T05:41:45.648Z,1011
2018-08-12T05:42:46.370Z,1011
2018-08-12T05:43:47.085Z,1011
2018-08-12T05:44:47.822Z,1011
2018-08-12T05:45:48.554Z,1011
2018-08-12T05:46:49.288Z,1011
2018-08-12T05:47:50.009Z,1011
2018-08-12T05:48:50.727Z,1011
2018-08-12T05:49:51.459Z,1011
2018-08-12T05:50:52.178Z,1011
2018-08-12T05:51:52.896Z,1011
2018-08-12T05:52:53.628Z,1011
2018-08-12T05:53:54.360Z,1011
2018-08-12T05:54:55.082Z,1011
2018-08-12T05:55:55.800Z,1011
2018-08-12T05:56:56.519Z,1011
2018-08-12T05:57:57.243Z,1011
2018-08-12T05:58:57.957Z,1011
2018-08-12T05:59:58.677Z,1011
2018-08-12T06:00:59.411Z,1011
2018-08-12T06:02:00.130Z,1011
2018-08-12T06:03:00.865Z,1011
2018-08-12T06:04:01.597Z,1011
2018-08-12T06:05:02.332Z,1011
2018-08-12T06:06:03.051Z,1011
2018-08-12T06:07:03.769Z,1011
2018-08-12T06:08:04.486Z,1011
2018-08-12T06:09:05.219Z,1011
2018-08-12T06:10:05.939Z,1011
2018-08-12T06:11:06.659Z,1011
2018-08-12T06:12:07.386Z,1011
2018-08-12T06:13:08.100Z,1011
2018-08-12T06:14:08.818Z,1011
2018-08-12T06:15:09.537Z,1011
2018-08-12T06:16:10.256Z,1011
2018-08-12T06:17:10.991Z,1011
2018-08-12T06:18:11.715Z,1011
2018-08-12T06:19:12.446Z,1011
2018-08-12T06:20:13.174Z,1011
2018-08-12T06:21:13.898Z,1011
2018-08-12T06:22:14.616Z,1011
2018-08-12T06:23:15.352Z,1011
2018-08-12T06:24:16.084Z,1011
2018-08-12T06:25:16.804Z,1011
2018-08-12T06:26:17.525Z,1011
2018-08-12T06:27:18.245Z,1011
2018-08-12T06:28:18.962Z,1011
2018-08-12T06:29:19.681Z,1011
2018-08-12T06:30:20.401Z,1011
2018-08-12T06:31:21.155Z,1011
2018-08-12T06:32:21.863Z,1011
2018-08-12T06:33:22.587Z,1010
2018-08-12T06:34:23.362Z,1011
2018-08-12T06:35:24.040Z,1011
2018-08-12T06:36:24.762Z,1011
2018-08-12T06:37:25.482Z,1011
2018-08-12T06:38:26.216Z,1011
2018-08-12T06:39:26.946Z,1011
2018-08-12T06:40:27.666Z,1011
2018-08-12T06:41:28.398Z,1011
2018-08-12T06:42:29.108Z,1010
2018-08-12T06:43:29.827Z,1011
2018-08-12T06:44:30.546Z,1010
2018-08-12T06:45:31.278Z,1010
2018-08-12T06:46:32.012Z,1011
2018-08-12T06:47:32.733Z,1010
2018-08-12T06:48:33.453Z,1010
2018-08-12T06:49:34.188Z,1010
2018-08-12T06:50:34.922Z,1011
2018-08-12T06:51:35.642Z,1011
2018-08-12T06:52:36.363Z,1011
2018-08-12T06:53:37.084Z,1011
2018-08-12T06:54:37.803Z,1011
2018-08-12T06:55:38.537Z,1011
2018-08-12T06:56:39.270Z,1011
2018-08-12T06:57:39.990Z,1011
2018-08-12T06:58:40.754Z,1011
2018-08-12T06:59:41.449Z,1011
2018-08-12T07:00:42.172Z,1011
2018-08-12T07:01:42.892Z,1011
2018-08-12T07:02:43.613Z,1011
2018-08-12T07:03:44.337Z,1011
2018-08-12T07:04:45.058Z,1011
2018-08-12T07:05:45.781Z,1011
2018-08-12T07:06:46.506Z,1011
2018-08-12T07:07:47.231Z,1011
2018-08-12T07:08:47.956Z,1011
2018-08-12T07:09:48.680Z,1011
2018-08-12T07:10:49.420Z,1011
2018-08-12T07:11:50.147Z,1011
2018-08-12T07:12:50.872Z,1011
2018-08-12T07:13:51.611Z,1011
2018-08-12T07:14:52.338Z,1011
2018-08-12T07:15:53.065Z,1011
2018-08-12T07:16:53.790Z,1011
2018-08-12T07:17:54.517Z,1011
2018-08-12T07:18:55.243Z,1011
2018-08-12T07:19:55.969Z,1011
2018-08-12T07:20:56.697Z,1011
2018-08-12T07:21:57.424Z,1011
2018-08-12T07:22:58.150Z,1011
2018-08-12T07:23:58.879Z,1011
2018-08-12T07:24:59.606Z,1011
2018-08-12T07:26:00.334Z,1011
2018-08-12T07:27:01.066Z,1011
2018-08-12T07:28:01.796Z,1011
2018-08-12T07:29:02.535Z,1011
2018-08-12T07:30:03.266Z,1011
2018-08-12T07:31:04.008Z,1011
2018-08-12T07:32:04.745Z,1011
2018-08-12T07:33:05.480Z,1011
2018-08-12T07:34:06.212Z,1011
2018-08-12T07:35:06.941Z,1011
2018-08-12T07:36:07.675Z,1011
2018-08-12T07:37:08.421Z,1011
2018-08-12T07:38:09.155Z,1011
2018-08-12T07:39:09.888Z,1011
2018-08-12T07:40:10.622Z,1011
2018-08-12T07:41:11.369Z,1011
2018-08-12T07:42:12.102Z,1011
2018-08-12T07:43:12.852Z,1011
2018-08-12T07:44:13.584Z,1010
2018-08-12T07:45:14.330Z,1010
2018-08-12T07:46:15.063Z,1010
2018-08-12T07:47:15.796Z,1011
2018-08-12T07:48:16.544Z,1010
2018-08-12T07:49:17.277Z,1010
2018-08-12T07:50:18.014Z,1010
2018-08-12T07:51:18.747Z,1010
2018-08-12T07:52:19.482Z,1010
2018-08-12T07:53:20.215Z,1010
2018-08-12T07:54:20.962Z,1010
2018-08-12T07:55:21.695Z,1010
2018-08-12T07:56:22.442Z,1010
2018-08-12T07:57:23.173Z,1010
2018-08-12T07:58:23.922Z,1010
2018-08-12T07:59:24.653Z,1010
2018-08-12T08:00:25.386Z,1010
2018-08-12T08:01:26.121Z,1010
2018-08-12T08:02:26.868Z,1010
2018-08-12T08:03:27.599Z,1010
2018-08-12T08:04:28.349Z,1010
2018-08-12T08:05:29.085Z,1010
2018-08-12T08:06:29.812Z,1010
2018-08-12T08:07:30.543Z,1010
2018-08-12T08:08:31.283Z,1010
2018-08-12T08:09:32.001Z,1010
2018-08-12T08:10:32.730Z,1010
2018-08-12T08:11:33.457Z,1010
2018-08-12T08:12:34.247Z,1010
2018-08-12T08:13:34.921Z,1010
2018-08-12T08:14:35.646Z,1010
2018-08-12T08:15:36.376Z,1010
2018-08-12T08:16:37.109Z,1010
2018-08-12T08:17:37.841Z,1010
2018-08-12T08:18:38.574Z,1010
2018-08-12T08:19:39.320Z,1010
2018-08-12T08:20:40.036Z,1010
2018-08-12T08:21:40.769Z,1010
2018-08-12T08:22:41.512Z,1010
2018-08-12T08:23:42.243Z,1010
2018-08-12T08:24:42.988Z,1010
2018-08-12T08:25:43.764Z,1010
2018-08-12T08:26:44.449Z,1010
2018-08-12T08:27:45.181Z,1010
2018-08-12T08:28:45.914Z,1010
2018-08-12T08:29:46.661Z,1010
2018-08-12T08:30:47.392Z,1010
2018-08-12T08:31:48.361Z,1010
2018-08-12T08:32:48.883Z,1010
2018-08-12T08:33:49.606Z,1010
2018-08-12T08:34:50.337Z,1010
2018-08-12T08:35:51.085Z,1010
2018-08-12T08:36:51.823Z,1010
2018-08-12T08:37:52.591Z,1010
2018-08-12T08:38:53.284Z,1010
2018-08-12T08:39:54.014Z,1010
2018-08-12T08:40:54.745Z,1010
2018-08-12T08:41:55.492Z,1010
2018-08-12T08:42:56.234Z,1010
2018-08-12T08:43:56.987Z,1010
2018-08-12T08:44:57.692Z,1010
2018-08-12T08:45:58.439Z,1010
2018-08-12T08:46:59.186Z,1010
2018-08-12T08:47:59.922Z,1010
2018-08-12T08:49:00.654Z,1010
2018-08-12T08:50:01.453Z,1010
2018-08-12T08:51:02.122Z,1010
2018-08-12T08:52:02.856Z,1010
2018-08-12T08:53:03.591Z,1010
2018-08-12T08:54:04.353Z,1010
2018-08-12T08:55:05.062Z,1010
2018-08-12T08:56:05.812Z,1010
2018-08-12T08:57:06.529Z,1010
2018-08-12T08:58:07.268Z,1010
2018-08-12T08:59:08.001Z,1010
2018-08-12T09:00:08.739Z,1010
2018-08-12T09:01:09.493Z,1010
2018-08-12T09:02:10.224Z,1010
2018-08-12T09:03:10.958Z,1010
2018-08-12T09:04:11.707Z,1010
2018-08-12T09:05:12.441Z,1010
2018-08-12T09:06:13.176Z,1010
2018-08-12T09:07:13.911Z,1010
2018-08-12T09:08:14.816Z,1010
2018-08-12T09:09:15.635Z,1010
2018-08-12T09:10:16.137Z,1010
2018-08-12T09:11:16.869Z,1010
2018-08-12T09:12:17.608Z,1010
2018-08-12T09:13:18.345Z,1010
2018-08-12T09:14:19.101Z,1010
2018-08-12T09:15:19.852Z,1010
2018-08-12T09:16:20.583Z,1010
2018-08-12T09:17:21.319Z,1010
2018-08-12T09:18:22.172Z,1010
2018-08-12T09:19:22.789Z,1010
2018-08-12T09:20:23.525Z,1010
2018-08-12T09:21:24.260Z,1010
2018-08-12T09:22:24.993Z,1010
2018-08-12T09:23:25.729Z,1010
2018-08-12T09:24:26.465Z,1010
2018-08-12T09:25:27.227Z,1010
2018-08-12T09:26:27.973Z,1010
2018-08-12T09:27:28.710Z,1010
2018-08-12T09:28:29.448Z,1010
2018-08-12T09:29:30.188Z,1010
2018-08-12T09:30:30.928Z,1010
2018-08-12T09:31:31.669Z,1010
2018-08-12T09:32:32.408Z,1010
2018-08-12T09:33:33.170Z,1010
2018-08-12T09:34:33.909Z,1010
2018-08-12T09:35:34.653Z,1010
2018-08-12T09:36:35.392Z,1010
2018-08-12T09:37:36.151Z,1010
2018-08-12T09:38:36.895Z,1010
2018-08-12T09:39:37.639Z,1010
2018-08-12T09:40:38.397Z,1010
2018-08-12T09:41:39.143Z,1010
2018-08-12T09:42:39.888Z,1010
2018-08-12T09:43:40.636Z,1010
2018-08-12T09:44:41.383Z,1010
2018-08-12T09:45:42.129Z,1010
2018-08-12T09:46:42.877Z,1010
2018-08-12T09:47:43.617Z,1010
2018-08-12T09:48:44.364Z,1010
2018-08-12T09:49:45.105Z,1010
2018-08-12T09:50:45.862Z,1010
2018-08-12T09:51:46.825Z,1010
2018-08-12T09:52:47.370Z,1010
2018-08-12T09:53:48.108Z,1010
2018-08-12T09:54:48.849Z,1010
2018-08-12T09:55:49.590Z,1010
2018-08-12T09:56:50.347Z,1010
2018-08-12T09:57:51.093Z,1010
2018-08-12T09:58:51.848Z,1010
2018-08-12T09:59:52.589Z,1010
2018-08-12T10:00:53.335Z,1010
2018-08-12T10:01:54.072Z,1010
2018-08-12T10:02:54.814Z,1010
2018-08-12T10:03:55.557Z,1010
2018-08-12T10:04:56.300Z,1010
2018-08-12T10:05:57.043Z,1010
2018-08-12T10:06:57.789Z,1010
2018-08-12T10:07:58.541Z,1010
2018-08-12T10:08:59.283Z,1010
2018-08-12T10:10:00.026Z,1010
2018-08-12T10:11:00.766Z,1010
2018-08-12T10:12:01.507Z,1010
2018-08-12T10:13:02.249Z,1010
2018-08-12T10:14:02.990Z,1010
2018-08-12T10:15:03.734Z,1010
2018-08-12T10:16:04.476Z,1010
2018-08-12T10:17:05.218Z,1010
2018-08-12T10:18:05.959Z,1010
2018-08-12T10:19:06.701Z,1009
2018-08-12T10:20:07.442Z,1009
2018-08-12T10:21:08.183Z,1009
2018-08-12T10:22:08.925Z,1009
2018-08-12T10:23:09.682Z,1009
2018-08-12T10:24:10.424Z,1009
2018-08-12T10:25:11.169Z,1009
2018-08-12T10:26:11.913Z,1009
2018-08-12T10:27:12.656Z,1009
2018-08-12T10:28:13.413Z,1009
2018-08-12T10:29:14.243Z,1009
2018-08-12T10:30:14.912Z,1009
2018-08-12T10:31:15.655Z,1009
2018-08-12T10:32:16.398Z,1009
2018-08-12T10:33:17.141Z,1009
2018-08-12T10:34:17.884Z,1009
2018-08-12T10:35:18.627Z,1009
2018-08-12T10:36:19.370Z,1009
2018-08-12T10:37:20.108Z,1009
2018-08-12T10:38:20.851Z,1009
2018-08-12T10:39:21.595Z,1009
2018-08-12T10:40:22.341Z,1009
2018-08-12T10:41:23.101Z,1009
2018-08-12T10:42:23.858Z,1009
2018-08-12T10:43:24.603Z,1009
2018-08-12T10:44:25.376Z,1009
2018-08-12T10:45:26.096Z,1009
2018-08-12T10:46:26.835Z,1009
2018-08-12T10:47:27.573Z,1009
2018-08-12T10:48:28.326Z,1009
2018-08-12T10:49:29.067Z,1009
2018-08-12T10:51:19.492Z,1009
2018-08-12T10:52:20.228Z,1009
2018-08-12T10:53:20.971Z,1009
2018-08-12T10:54:21.714Z,1009
2018-08-12T10:55:22.467Z,1009
2018-08-12T10:56:23.224Z,1009
2018-08-12T10:57:23.966Z,1009
2018-08-12T10:58:24.709Z,1009
2018-08-12T10:59:25.545Z,1009
2018-08-12T11:00:26.202Z,1009
2018-08-12T11:01:26.945Z,1009
2018-08-12T11:02:27.687Z,1009
2018-08-12T11:03:28.427Z,1009
2018-08-12T11:04:29.166Z,1009
2018-08-12T11:05:29.905Z,1009
2018-08-12T11:06:30.645Z,1009
2018-08-12T11:07:31.456Z,1009
2018-08-12T11:08:32.120Z,1009
2018-08-12T11:09:32.874Z,1009
2018-08-12T11:10:33.613Z,1009
2018-08-12T11:11:34.354Z,1009
2018-08-12T11:12:35.117Z,1009
2018-08-12T11:14:53.677Z,1009
2018-08-12T11:15:54.415Z,1009
2018-08-12T11:16:55.157Z,1009
2018-08-12T11:17:55.892Z,1009
2018-08-12T11:18:56.624Z,1009
2018-08-12T11:19:57.360Z,1009
2018-08-12T11:20:58.111Z,1009
2018-08-12T11:21:58.865Z,1009
2018-08-12T11:22:59.616Z,1009
2018-08-12T11:24:53.235Z,1009
2018-08-12T11:27:09.592Z,1009
2018-08-12T11:28:10.328Z,1009
2018-08-12T11:30:12.789Z,1009
2018-08-12T11:31:13.504Z,1009
2018-08-12T11:32:14.245Z,1009
2018-08-12T11:33:14.996Z,1009
2018-08-12T11:34:16.541Z,1009
2018-08-12T11:35:17.277Z,1009
2018-08-12T11:36:18.022Z,1009
2018-08-12T11:37:18.751Z,1009
2018-08-12T11:38:19.484Z,1009
2018-08-12T11:39:20.215Z,1009
2018-08-12T11:40:20.958Z,1009
2018-08-12T11:41:21.744Z,1009
2018-08-12T11:42:22.416Z,1008
2018-08-12T11:43:23.148Z,1008
2018-08-12T11:44:23.878Z,1008
2018-08-12T11:45:24.605Z,1008
2018-08-12T11:46:25.334Z,1008
2018-08-12T11:47:26.116Z,1008
2018-08-12T11:48:26.791Z,1008
2018-08-12T11:49:27.520Z,1008
2018-08-12T11:50:28.251Z,1008
2018-08-12T11:51:28.996Z,1008
2018-08-12T11:52:29.741Z,1008
2018-08-12T11:53:30.468Z,1008
2018-08-12T11:54:31.197Z,1008
2018-08-12T11:55:31.926Z,1008
2018-08-12T11:56:32.655Z,1008
2018-08-12T11:57:33.381Z,1008
2018-08-12T11:58:34.111Z,1008
2018-08-12T11:59:34.853Z,1008
2018-08-12T12:00:35.581Z,1008
2018-08-12T12:01:36.309Z,1008
2018-08-12T12:02:37.038Z,1008
2018-08-12T12:03:37.767Z,1008
2018-08-12T12:04:38.497Z,1008
2018-08-12T12:05:39.239Z,1008
2018-08-12T12:06:39.983Z,1008
2018-08-12T12:07:40.712Z,1008
2018-08-12T12:08:41.440Z,1008
2018-08-12T12:09:42.168Z,1008
2018-08-12T12:10:42.896Z,1008
2018-08-12T12:11:43.623Z,1008
2018-08-12T12:12:44.349Z,1008
2018-08-12T12:13:45.078Z,1008
2018-08-12T12:14:45.846Z,1008
2018-08-12T12:15:46.589Z,1008
2018-08-12T12:16:47.332Z,1008
2018-08-12T12:17:48.075Z,1008
2018-08-12T12:18:48.798Z,1008
2018-08-12T12:19:49.525Z,1008
2018-08-12T12:20:50.253Z,1008
2018-08-12T12:21:50.981Z,1008
2018-08-12T12:22:51.709Z,1008
2018-08-12T12:23:52.447Z,1008
2018-08-12T12:24:53.174Z,1008
2018-08-12T12:25:53.912Z,1008
2018-08-12T12:26:54.643Z,1008
2018-08-12T12:27:55.370Z,1008
2018-08-12T12:28:56.113Z,1008
2018-08-12T12:29:56.840Z,1008
2018-08-12T12:30:57.566Z,1008
2018-08-12T12:31:58.308Z,1008
2018-08-12T12:32:59.050Z,1008
2018-08-12T12:33:59.775Z,1008
2018-08-12T12:35:00.515Z,1008
2018-08-12T12:36:01.257Z,1008
2018-08-12T12:37:01.989Z,1008
2018-08-12T12:38:02.712Z,1008
2018-08-12T12:39:03.439Z,1008
2018-08-12T12:40:04.167Z,1008
2018-08-12T12:41:04.909Z,1008
2018-08-12T12:42:05.651Z,1008
2018-08-12T12:43:06.379Z,1008
2018-08-12T12:44:07.104Z,1008
2018-08-12T12:45:07.831Z,1008
2018-08-12T12:46:08.560Z,1008
2018-08-12T12:47:09.300Z,1008
2018-08-12T12:48:10.030Z,1008
2018-08-12T12:49:10.771Z,1008
2018-08-12T12:50:11.577Z,1008
2018-08-12T12:51:12.236Z,1008
2018-08-12T12:52:12.960Z,1008
2018-08-12T12:53:13.688Z,1008
2018-08-12T12:54:14.430Z,1008
2018-08-12T12:55:15.160Z,1007
2018-08-12T12:56:15.900Z,1007
2018-08-12T12:57:16.691Z,1007
2018-08-12T12:58:17.418Z,1007
2018-08-12T12:59:18.145Z,1007
2018-08-12T13:00:18.873Z,1007
2018-08-12T13:01:19.626Z,1007
2018-08-12T13:02:20.391Z,1007
2018-08-12T13:03:21.118Z,1007
2018-08-12T13:04:21.845Z,1007
2018-08-12T13:05:22.595Z,1007
2018-08-12T13:06:23.328Z,1007
2018-08-12T13:07:24.056Z,1007
2018-08-12T13:08:24.794Z,1007
2018-08-12T13:09:25.520Z,1007
2018-08-12T13:10:26.261Z,1007
2018-08-12T13:11:27.004Z,1007
2018-08-12T13:12:27.787Z,1007
2018-08-12T13:13:28.460Z,1007
2018-08-12T13:14:29.186Z,1007
2018-08-12T13:15:29.911Z,1007
2018-08-12T13:16:30.636Z,1007
2018-08-12T13:17:31.364Z,1007
2018-08-12T13:18:32.126Z,1007
2018-08-12T13:19:32.849Z,1007
2018-08-12T13:20:33.590Z,1007
2018-08-12T13:21:34.315Z,1007
2018-08-12T13:22:35.041Z,1007
2018-08-12T13:23:35.769Z,1007
2018-08-12T13:24:36.495Z,1007
2018-08-12T13:25:37.222Z,1007
2018-08-12T13:26:37.948Z,1007
2018-08-12T13:27:38.673Z,1007
2018-08-12T13:28:39.411Z,1007
2018-08-12T13:29:40.137Z,1007
2018-08-12T13:30:40.864Z,1007
2018-08-12T13:31:41.591Z,1007
2018-08-12T13:32:42.316Z,1007
2018-08-12T13:33:43.070Z,1007